Flood From: 24-02-2018 06:00 Until: 25-02-2018 06:00 warning for: Flood Level: Yellow info button

Although rather usual in this region, locally or potentially dangerous phenomena are expected. (such as local winds, summer thunderstorms, rising streams or high waves) Be aware and pay attention to the latest weather updates, especially if you carry out activities exposed to weather or close to a stream or shoreline. 


Meteo18 Weather Cam more information Meteo18 Weather Cam


Thunder radar more information blitzortung!


Rain radar more information rain snow radar


Visit our other weather sites:

Template documentation
and downloads

And another site



Weather Underground History page Text

Daily Summary for April 18, 2017 Units:  Metric    English   Both
« Previous Day
Next Day »
Daily Weekly Monthly Yearly Custom
  High: Low: Average:
Temperature: -17.8 °C -16.3 °C -14.1 °C
Dew Point: -17.8 °C -18.3 °C -16.9 °C
Humidity: Humidity % 46 % 71 %
Wind Speed: 0 km/h 0 km/h 10.3 km/h
Wind Gust: 0 km/h - -
Wind:- - SSE
Pressure: 0 hPa 34645.6 hPa -
Precipitation: 0 mm    
Historical Graphs
 
 
Tabular Data for April 18, 2017
Time Temperature Dew Point Pressure Wind Wind Speed Wind Gust Humidity Rainfall Rate (Hourly)
-17.8 °C -17.8 °C 0 hPa Calm     Humidity % 0 mm
00:02 -12.9 °C -15.1 °C 34645.6 hPa Calm   28.5 km/h 76 % 0 mm
00:07 -12.9 °C -15.1 °C 34645.6 hPa NNE 10.3 km/h 20.8 km/h 77 % 0 mm
00:12 -12.9 °C -15.1 °C 34645.6 hPa NE 5.1 km/h 20.8 km/h 77 % 0 mm
00:22 -13 °C -15.2 °C 34659.1 hPa NNW 5.1 km/h 20.8 km/h 76 % 0 mm
00:27 -13.1 °C -15.2 °C 34659.1 hPa NE 15.6 km/h 23.3 km/h 77 % 0 mm
00:32 -13.2 °C -15.3 °C 34659.1 hPa East 2.6 km/h 23.3 km/h 77 % 0 mm
00:42 -13.3 °C -15.4 °C 34659.1 hPa Calm   20.8 km/h 77 % 0 mm
00:47 -13.5 °C -15.5 °C 34659.1 hPa Calm   15.6 km/h 78 % 0 mm
00:52 -13.6 °C -15.5 °C 34659.1 hPa Calm   15.6 km/h 79 % 0 mm
00:57 -13.7 °C -15.6 °C 34659.1 hPa Calm   7.7 km/h 79 % 0 mm
01:02 -13.8 °C -15.6 °C 34659.1 hPa NE 7.7 km/h 7.7 km/h 80 % 0 mm
01:07 -13.8 °C -15.6 °C 34659.1 hPa NE 7.7 km/h 10.3 km/h 80 % 0 mm
01:12 -13.9 °C -15.7 °C 34659.1 hPa NNE 5.1 km/h 10.3 km/h 80 % 0 mm
01:17 -14.1 °C -15.8 °C 34659.1 hPa Calm   10.3 km/h 81 % 0 mm
01:22 -14.2 °C -15.8 °C 34659.1 hPa Calm   10.3 km/h 82 % 0 mm
01:27 -14.2 °C -15.7 °C 34659.1 hPa NNW 2.6 km/h 10.3 km/h 83 % 0 mm
01:32 -14.3 °C -15.8 °C 34659.1 hPa NNW 5.1 km/h 7.7 km/h 82 % 0 mm
01:37 -14.3 °C -15.8 °C 34659.1 hPa Calm   7.7 km/h 83 % 0 mm
01:42 -14.4 °C -15.9 °C 34659.1 hPa North 2.6 km/h 7.7 km/h 83 % 0 mm
01:52 -14.6 °C -15.9 °C 34669.3 hPa Calm   7.7 km/h 84 % 0 mm
01:57 -14.6 °C -15.9 °C 34669.3 hPa Calm   5.1 km/h 84 % 0 mm
02:02 -14.6 °C -16 °C 34659.1 hPa NW 2.6 km/h 5.1 km/h 84 % 0 mm
02:07 -14.6 °C -15.9 °C 34669.3 hPa NW 2.6 km/h 5.1 km/h 85 % 0 mm
02:12 -14.7 °C -15.9 °C 34659.1 hPa Calm   5.1 km/h 85 % 0 mm
02:17 -14.7 °C -15.9 °C 34669.3 hPa Calm   5.1 km/h 85 % 0 mm
02:22 -14.7 °C -16 °C 34669.3 hPa NW 2.6 km/h 5.1 km/h 85 % 0 mm
02:27 -14.8 °C -16.1 °C 34669.3 hPa Calm   5.1 km/h 85 % 0 mm
02:32 -14.8 °C -16.1 °C 34669.3 hPa Calm   5.1 km/h 85 % 0 mm
02:37 -14.8 °C -16.1 °C 34669.3 hPa NW 2.6 km/h 5.1 km/h 86 % 0 mm
02:42 -14.8 °C -16.1 °C 34669.3 hPa NW 2.6 km/h 5.1 km/h 86 % 0 mm
02:47 -14.8 °C -16.1 °C 34669.3 hPa Calm   5.1 km/h 86 % 0 mm
02:52 -14.8 °C -16 °C 34659.1 hPa NW 2.6 km/h 5.1 km/h 86 % 0 mm
02:57 -14.8 °C -16 °C 34669.3 hPa NNW 2.6 km/h 5.1 km/h 86 % 0 mm
03:02 -14.8 °C -16.1 °C 34659.1 hPa Calm   5.1 km/h 86 % 0 mm
03:07 -14.8 °C -16.1 °C 34659.1 hPa NNW 2.6 km/h 7.7 km/h 86 % 0 mm
03:12 -14.9 °C -16.1 °C 34659.1 hPa Calm   7.7 km/h 86 % 0 mm
03:17 -14.9 °C -16.1 °C 34659.1 hPa Calm   7.7 km/h 86 % 0 mm
03:22 -14.9 °C -16.1 °C 34659.1 hPa Calm   5.1 km/h 86 % 0 mm
03:27 -14.9 °C -16.1 °C 34659.1 hPa Calm   5.1 km/h 86 % 0 mm
03:32 -15 °C -16.2 °C 34659.1 hPa WNW 2.6 km/h 5.1 km/h 86 % 0 mm
03:37 -15.1 °C -16.2 °C 34659.1 hPa Calm   5.1 km/h 86 % 0 mm
03:42 -15.1 °C -16.2 °C 34659.1 hPa Calm   5.1 km/h 86 % 0 mm
03:47 -15.1 °C -16.2 °C 34659.1 hPa NW 2.6 km/h 2.6 km/h 86 % 0 mm
03:52 -15.1 °C -16.3 °C 34659.1 hPa NW 2.6 km/h 2.6 km/h 86 % 0 mm
03:57 -15.2 °C -16.3 °C 34659.1 hPa Calm   2.6 km/h 86 % 0 mm
04:02 -15.2 °C -16.3 °C 34659.1 hPa NW 2.6 km/h 2.6 km/h 87 % 0 mm
04:07 -15.2 °C -16.3 °C 34659.1 hPa Calm   5.1 km/h 87 % 0 mm
04:12 -15.3 °C -16.4 °C 34659.1 hPa Calm   5.1 km/h 87 % 0 mm
04:17 -15.3 °C -16.5 °C 34669.3 hPa West 5.1 km/h 5.1 km/h 86 % 0 mm
04:22 -15.3 °C -16.3 °C 34659.1 hPa NW 2.6 km/h 7.7 km/h 88 % 0 mm
04:27 -15.3 °C -16.3 °C 34669.3 hPa NW 5.1 km/h 7.7 km/h 88 % 0 mm
04:32 -15.2 °C -16.2 °C 34669.3 hPa NW 5.1 km/h 7.7 km/h 88 % 0 mm
04:37 -15.2 °C -16.3 °C 34669.3 hPa WNW 2.6 km/h 7.7 km/h 87 % 0 mm
04:47 -15.3 °C -16.4 °C 34669.3 hPa NW 2.6 km/h 7.7 km/h 87 % 0 mm
04:52 -15.3 °C -16.3 °C 34669.3 hPa NW 2.6 km/h 7.7 km/h 88 % 0 mm
05:02 -15.4 °C -16.4 °C 34669.3 hPa NW 2.6 km/h 7.7 km/h 88 % 0 mm
05:12 -15.6 °C -16.6 °C 34669.3 hPa NNW 5.1 km/h 5.1 km/h 88 % 0 mm
05:17 -15.6 °C -16.6 °C 34682.8 hPa NNW 10.3 km/h 10.3 km/h 88 % 0 mm
05:22 -15.6 °C -16.6 °C 34682.8 hPa North 5.1 km/h 20.8 km/h 88 % 0 mm
05:27 -15.6 °C -16.6 °C 34682.8 hPa NNW 12.9 km/h 20.8 km/h 88 % 0 mm
05:32 -15.6 °C -16.6 °C 34682.8 hPa NW 5.1 km/h 20.8 km/h 88 % 0 mm
05:37 -15.6 °C -16.6 °C 34682.8 hPa NNE 7.7 km/h 20.8 km/h 88 % 0 mm
05:42 -15.6 °C -16.6 °C 34682.8 hPa NW 2.6 km/h 20.8 km/h 88 % 0 mm
05:52 -15.7 °C -16.7 °C 34682.8 hPa NNE 2.6 km/h 15.6 km/h 88 % 0 mm
06:02 -15.8 °C -16.9 °C 34682.8 hPa ENE 2.6 km/h 12.9 km/h 87 % 0 mm
06:07 -15.8 °C -16.9 °C 34682.8 hPa NE 2.6 km/h 15.6 km/h 87 % 0 mm
06:12 -15.9 °C -17.1 °C 34682.8 hPa NNE 7.7 km/h 15.6 km/h 87 % 0 mm
06:17 -15.9 °C -17.1 °C 34682.8 hPa NNE 2.6 km/h 10.3 km/h 87 % 0 mm
06:22 -16 °C -17.2 °C 34682.8 hPa NNE 2.6 km/h 10.3 km/h 86 % 0 mm
06:32 -16.2 °C -17.3 °C 34682.8 hPa Calm   10.3 km/h 86 % 0 mm
06:37 -16.2 °C -17.3 °C 34693 hPa North 5.1 km/h 7.7 km/h 86 % 0 mm
06:42 -16.2 °C -17.3 °C 34693 hPa NNW 10.3 km/h 10.3 km/h 86 % 0 mm
06:47 -16.2 °C -17.4 °C 34693 hPa NNW 5.1 km/h 12.9 km/h 85 % 0 mm
06:52 -16.1 °C -17.4 °C 34693 hPa NNE 2.6 km/h 12.9 km/h 84 % 0 mm
06:57 -16.2 °C -17.6 °C 34693 hPa North 10.3 km/h 23.3 km/h 84 % 0 mm
07:02 -16.3 °C -17.6 °C 34693 hPa North 2.6 km/h 23.3 km/h 85 % 0 mm
07:12 -16.3 °C -17.6 °C 34703.1 hPa Calm   18.2 km/h 85 % 0 mm
07:17 -16.2 °C -17.6 °C 34703.1 hPa NE 5.1 km/h 12.9 km/h 84 % 0 mm
07:22 -16.2 °C -17.5 °C 34703.1 hPa NNE 7.7 km/h 12.9 km/h 84 % 0 mm
07:32 -16.1 °C -17.5 °C 34703.1 hPa NE 2.6 km/h 10.3 km/h 83 % 0 mm
07:42 -16.1 °C -17.6 °C 34703.1 hPa North 2.6 km/h 12.9 km/h 82 % 0 mm
07:47 -16 °C -17.6 °C 34716.7 hPa NNE 2.6 km/h 12.9 km/h 82 % 0 mm
07:52 -15.9 °C -17.4 °C 34716.7 hPa NNE 2.6 km/h 12.9 km/h 82 % 0 mm
07:57 -15.8 °C -17.3 °C 34716.7 hPa Calm   7.7 km/h 82 % 0 mm
08:02 -15.7 °C -17.3 °C 34726.8 hPa North 2.6 km/h 7.7 km/h 82 % 0 mm
08:12 -15.5 °C -17.2 °C 34726.8 hPa North 7.7 km/h 20.8 km/h 81 % 0 mm
08:17 -15.4 °C -17.2 °C 34726.8 hPa NNE 12.9 km/h 20.8 km/h 80 % 0 mm
08:22 -15.4 °C -17.1 °C 34740.4 hPa North 10.3 km/h 20.8 km/h 80 % 0 mm
08:32 -15.3 °C -17.1 °C 34740.4 hPa NNE 7.7 km/h 23.3 km/h 79 % 0 mm
08:37 -15.2 °C -17 °C 34740.4 hPa NNE 10.3 km/h 28.5 km/h 79 % 0 mm
08:42 -15.1 °C -16.9 °C 34740.4 hPa NW 7.7 km/h 28.5 km/h 79 % 0 mm
08:52 -14.9 °C -17.2 °C 34740.4 hPa NNE 10.3 km/h 28.5 km/h 75 % 0 mm
08:57 -14.8 °C -17.1 °C 34750.5 hPa NE 7.7 km/h 38.8 km/h 75 % 0 mm
09:07 -14.7 °C -17.3 °C 34750.5 hPa East 7.7 km/h 33.6 km/h 72 % 0 mm
09:12 -14.6 °C -17.3 °C 34750.5 hPa North 12.9 km/h 33.6 km/h 71 % 0 mm
09:17 -14.6 °C -17.2 °C 34750.5 hPa NNE 25.9 km/h 33.6 km/h 72 % 0 mm
09:22 -14.6 °C -17.3 °C 34750.5 hPa NNE 20.8 km/h 33.6 km/h 70 % 0 mm
09:32 -14.5 °C -17.2 °C 34760.7 hPa NNE 20.8 km/h 33.6 km/h 71 % 0 mm
09:42 -14.4 °C -17.1 °C 34760.7 hPa North 7.7 km/h 36.2 km/h 71 % 0 mm
09:52 -14.3 °C -17.1 °C 34760.7 hPa NE 7.7 km/h 31.1 km/h 71 % 0 mm
10:02 -14.2 °C -17.1 °C 34760.7 hPa ENE 7.7 km/h 31.1 km/h 70 % 0 mm
10:12 -14.1 °C -17 °C 34760.7 hPa NE 12.9 km/h 33.6 km/h 69 % 0 mm
10:17 -14 °C -16.8 °C 34760.7 hPa NE 10.3 km/h 33.6 km/h 70 % 0 mm
10:22 -14.1 °C -17.3 °C 34760.7 hPa ENE 18.2 km/h 33.6 km/h 66 % 0 mm
10:32 -13.8 °C -16.9 °C 34760.7 hPa ENE 7.7 km/h 38.8 km/h 67 % 0 mm
10:42 -13.7 °C -17.2 °C 34760.7 hPa NE 15.6 km/h 38.8 km/h 64 % 0 mm
10:47 -13.6 °C -17.2 °C 34774.2 hPa NE 10.3 km/h 36.2 km/h 63 % 0 mm
10:52 -13.5 °C -17.3 °C 34774.2 hPa NE 12.9 km/h 36.2 km/h 62 % 0 mm
11:02 -13.4 °C -17.6 °C 34774.2 hPa NNE 41.4 km/h 41.4 km/h 59 % 0 mm
11:12 -13.3 °C -17.6 °C 34774.2 hPa NNE 25.9 km/h 44.1 km/h 58 % 0 mm
11:17 -13.3 °C -17.9 °C 34774.2 hPa NE 7.7 km/h 44.1 km/h 56 % 0 mm
11:22 -13.2 °C -17.8 °C 34774.2 hPa NNE 25.9 km/h 44.1 km/h 56 % 0 mm
11:32 -12.9 °C -17.8 °C 34774.2 hPa NE 31.1 km/h 33.6 km/h 54 % 0 mm
11:37 -12.9 °C -18 °C 34774.2 hPa NE 20.8 km/h 44.1 km/h 53 % 0 mm
11:42 -12.9 °C -17.8 °C 34774.2 hPa NNE 15.6 km/h 44.1 km/h 54 % 0 mm
11:47 -12.9 °C -18 °C 34774.2 hPa North 41.4 km/h 44.1 km/h 53 % 0 mm
11:52 -12.9 °C -17.6 °C 34774.2 hPa NE 20.8 km/h 41.4 km/h 55 % 0 mm
11:57 -12.8 °C -17.6 °C 34774.2 hPa East 15.6 km/h 41.4 km/h 55 % 0 mm
12:07 -12.7 °C -17.3 °C 34774.2 hPa NNW 12.9 km/h 36.2 km/h 56 % 0 mm
12:12 -12.7 °C -17.4 °C 34774.2 hPa NNW 23.3 km/h 33.6 km/h 55 % 0 mm
12:17 -12.6 °C -17.7 °C 34774.2 hPa North 10.3 km/h 33.6 km/h 53 % 0 mm
12:22 -12.7 °C -17.8 °C 34774.2 hPa NNE 12.9 km/h 36.2 km/h 52 % 0 mm
12:32 -12.6 °C -17.8 °C 34774.2 hPa NE 20.8 km/h 41.4 km/h 52 % 0 mm
12:42 -12.3 °C -17.3 °C 34774.2 hPa NNE 12.9 km/h 36.2 km/h 54 % 0 mm
12:47 -12.3 °C -17.8 °C 34774.2 hPa NNW 20.8 km/h 36.2 km/h 50 % 0 mm
12:52 -12.4 °C -17.8 °C 34774.2 hPa NNW 28.5 km/h 38.8 km/h 51 % 0 mm
12:57 -12.3 °C -17.7 °C 34774.2 hPa NE 15.6 km/h 38.8 km/h 51 % 0 mm
13:02 -12.2 °C -17.8 °C 34774.2 hPa NNE 20.8 km/h 38.8 km/h 49 % 0 mm
13:07 -12.1 °C -17.4 °C 34774.2 hPa NE 15.6 km/h 38.8 km/h 51 % 0 mm
13:12 -12.1 °C -18.1 °C 34774.2 hPa ENE 23.3 km/h 51.8 km/h 47 % 0 mm
13:17 -12.1 °C -17.9 °C 34774.2 hPa NE 20.8 km/h 51.8 km/h 48 % 0 mm
13:22 -12.1 °C -17.9 °C 34774.2 hPa NE 33.6 km/h 51.8 km/h 48 % 0 mm
13:27 -12 °C -18 °C 34774.2 hPa NE 28.5 km/h 44.1 km/h 47 % 0 mm
13:32 -12.1 °C -17.8 °C 34774.2 hPa ENE 15.6 km/h 44.1 km/h 49 % 0 mm
13:37 -12 °C -17.8 °C 34760.7 hPa NNW 7.7 km/h 44.1 km/h 48 % 0 mm
13:42 -11.8 °C -17.6 °C 34774.2 hPa North 18.2 km/h 46.7 km/h 49 % 0 mm
13:47 -11.8 °C -17.7 °C 34774.2 hPa NE 12.9 km/h 46.7 km/h 48 % 0 mm
13:52 -12.1 °C -18.2 °C 34760.7 hPa NNE 28.5 km/h 41.4 km/h 46 % 0 mm
13:57 -12.1 °C -17.8 °C 34774.2 hPa NNW 23.3 km/h 41.4 km/h 49 % 0 mm
14:02 -12.2 °C -18 °C 34774.2 hPa NNW 12.9 km/h 41.4 km/h 48 % 0 mm
14:07 -11.9 °C -17.7 °C 34760.7 hPa NW 12.9 km/h 44.1 km/h 49 % 0 mm
14:12 -11.9 °C -17.8 °C 34774.2 hPa NW 25.9 km/h 44.1 km/h 48 % 0 mm
14:17 -12 °C -17.7 °C 34760.7 hPa WNW 10.3 km/h 49.2 km/h 49 % 0 mm
14:22 -11.8 °C -17.6 °C 34760.7 hPa NW 18.2 km/h 49.2 km/h 49 % 0 mm
14:27 -11.7 °C -17.6 °C 34774.2 hPa North 38.8 km/h 49.2 km/h 48 % 0 mm
14:32 -11.8 °C -18.1 °C 34774.2 hPa NW 15.6 km/h 49.2 km/h 46 % 0 mm
14:42 -12.1 °C -18.3 °C 34774.2 hPa North 23.3 km/h 51.8 km/h 46 % 0 mm
14:47 -12.1 °C -17.9 °C 34760.7 hPa NNE 31.1 km/h 51.8 km/h 48 % 0 mm
14:52 -12 °C -17.4 °C 34774.2 hPa NE 23.3 km/h 51.8 km/h 51 % 0 mm
14:57 -12.1 °C -17.9 °C 34774.2 hPa NNE 38.8 km/h 46.7 km/h 48 % 0 mm
15:02 -12.3 °C -18 °C 34774.2 hPa NNE 12.9 km/h 46.7 km/h 49 % 0 mm
15:07 -12.2 °C -17.6 °C 34760.7 hPa NNE 15.6 km/h 46.7 km/h 51 % 0 mm
15:12 -11.9 °C -17.4 °C 34760.7 hPa North 15.6 km/h 46.7 km/h 50 % 0 mm
15:17 -11.8 °C -17.9 °C 34760.7 hPa NNE 12.9 km/h 41.4 km/h 47 % 0 mm
15:22 -11.9 °C -17.3 °C 34760.7 hPa NNW 33.6 km/h 41.4 km/h 51 % 0 mm
15:27 -12 °C -17.7 °C 34760.7 hPa NNE 12.9 km/h 33.6 km/h 49 % 0 mm
15:32 -12.1 °C -17.4 °C 34760.7 hPa North 18.2 km/h 33.6 km/h 51 % 0 mm
15:37 -12.1 °C -17.7 °C 34760.7 hPa NNW 23.3 km/h 36.2 km/h 50 % 0 mm
15:42 -11.9 °C -17.4 °C 34760.7 hPa NNE 36.2 km/h 38.8 km/h 50 % 0 mm
15:47 -11.8 °C -16.9 °C 34760.7 hPa East 10.3 km/h 46.7 km/h 53 % 0 mm
15:52 -12 °C -17.1 °C 34760.7 hPa NE 7.7 km/h 46.7 km/h 53 % 0 mm
15:57 -12.1 °C -17.3 °C 34760.7 hPa ENE 15.6 km/h 46.7 km/h 52 % 0 mm
16:02 -11.8 °C -17.1 °C 34760.7 hPa NNE 20.8 km/h 46.7 km/h 52 % 0 mm
16:07 -11.6 °C -17 °C 34760.7 hPa North 41.4 km/h 46.7 km/h 51 % 0 mm
16:12 -11.6 °C -16.8 °C 34760.7 hPa NNE 28.5 km/h 49.2 km/h 52 % 0 mm
16:17 -11.8 °C -16.8 °C 34760.7 hPa NNE 28.5 km/h 54.4 km/h 54 % 0 mm
16:22 -12.1 °C -16.8 °C 34760.7 hPa NNE 36.2 km/h 54.4 km/h 56 % 0 mm
16:27 -12.3 °C -17.1 °C 34774.2 hPa NNW 28.5 km/h 54.4 km/h 55 % 0 mm
16:37 -12.1 °C -16.8 °C 34760.7 hPa NNE 33.6 km/h 51.8 km/h 56 % 0 mm
16:47 -12.1 °C -17.1 °C 34774.2 hPa NNW 20.8 km/h 46.7 km/h 54 % 0 mm
16:52 -12.2 °C -17 °C 34774.2 hPa NNW 23.3 km/h 46.7 km/h 55 % 0 mm
16:57 -12.3 °C -17.3 °C 34774.2 hPa NW 20.8 km/h 46.7 km/h 53 % 0 mm
17:02 -12.3 °C -17 °C 34774.2 hPa North 23.3 km/h 46.7 km/h 56 % 0 mm
17:12 -12.3 °C -16.8 °C 34774.2 hPa North 15.6 km/h 51.8 km/h 57 % 0 mm
17:17 -12.4 °C -16.6 °C 34774.2 hPa NNW 20.8 km/h 51.8 km/h 59 % 0 mm
17:22 -12.6 °C -16.8 °C 34774.2 hPa NNW 28.5 km/h 41.4 km/h 59 % 0 mm
17:27 -12.7 °C -17.1 °C 34774.2 hPa North 23.3 km/h 41.4 km/h 58 % 0 mm
17:32 -12.6 °C -17.1 °C 34774.2 hPa NW 18.2 km/h 41.4 km/h 57 % 0 mm
17:37 -12.6 °C -17.1 °C 34774.2 hPa NW 12.9 km/h 33.6 km/h 57 % 0 mm
17:42 -12.5 °C -17 °C 34774.2 hPa North 18.2 km/h 36.2 km/h 57 % 0 mm
17:47 -12.6 °C -16.9 °C 34774.2 hPa NNE 33.6 km/h 41.4 km/h 58 % 0 mm
17:52 -12.4 °C -16.7 °C 34774.2 hPa NNW 7.7 km/h 41.4 km/h 59 % 0 mm
17:57 -12.3 °C -16.7 °C 34774.2 hPa North 20.8 km/h 41.4 km/h 58 % 0 mm
18:02 -12.3 °C -16.9 °C 34774.2 hPa NNW 20.8 km/h 41.4 km/h 56 % 0 mm
18:12 -12.4 °C -17.2 °C 34774.2 hPa North 25.9 km/h 41.4 km/h 55 % 0 mm
18:17 -12.5 °C -17.1 °C 34774.2 hPa NNW 28.5 km/h 41.4 km/h 56 % 0 mm
18:22 -12.4 °C -17.2 °C 34774.2 hPa NW 12.9 km/h 41.4 km/h 55 % 0 mm
18:27 -12.4 °C -17.6 °C 34774.2 hPa NNE 18.2 km/h 41.4 km/h 52 % 0 mm
18:32 -12.4 °C -17.8 °C 34774.2 hPa North 31.1 km/h 33.6 km/h 51 % 0 mm
18:42 -12.7 °C -16.9 °C 34774.2 hPa North 20.8 km/h 33.6 km/h 59 % 0 mm
18:52 -13.1 °C -16.7 °C 34774.2 hPa East 12.9 km/h 51.8 km/h 64 % 0 mm
18:57 -13.4 °C -16.6 °C 34784.4 hPa ENE 25.9 km/h 36.2 km/h 67 % 0 mm
19:07 -13.8 °C -16.5 °C 34784.4 hPa ENE 10.3 km/h 28.5 km/h 71 % 0 mm
19:12 -13.9 °C -16.6 °C 34784.4 hPa NE 10.3 km/h 25.9 km/h 72 % 0 mm
19:17 -14.1 °C -16.6 °C 34784.4 hPa NE 7.7 km/h 28.5 km/h 73 % 0 mm
19:22 -14.1 °C -16.5 °C 34784.4 hPa NE 7.7 km/h 28.5 km/h 74 % 0 mm
19:27 -14.2 °C -16.6 °C 34797.9 hPa ENE 7.7 km/h 28.5 km/h 74 % 0 mm
19:32 -14.3 °C -16.6 °C 34797.9 hPa NE 12.9 km/h 28.5 km/h 75 % 0 mm
19:37 -14.3 °C -16.6 °C 34797.9 hPa NE 10.3 km/h 18.2 km/h 75 % 0 mm
19:42 -14.3 °C -16.5 °C 34797.9 hPa NE 7.7 km/h 18.2 km/h 76 % 0 mm
19:47 -14.3 °C -16.6 °C 34797.9 hPa NNE 12.9 km/h 18.2 km/h 75 % 0 mm
19:52 -14.4 °C -16.6 °C 34797.9 hPa East 2.6 km/h 18.2 km/h 76 % 0 mm
19:57 -14.4 °C -16.6 °C 34797.9 hPa NE 2.6 km/h 18.2 km/h 76 % 0 mm
20:02 -14.4 °C -16.4 °C 34797.9 hPa ENE 2.6 km/h 18.2 km/h 77 % 0 mm
20:12 -14.3 °C -16.4 °C 34797.9 hPa Calm   7.7 km/h 76 % 0 mm
20:17 -14.3 °C -16.5 °C 34808.1 hPa Calm   5.1 km/h 76 % 0 mm
20:22 -14.3 °C -16.5 °C 34808.1 hPa Calm   5.1 km/h 76 % 0 mm
20:32 -14.6 °C -16.6 °C 34808.1 hPa Calm   5.1 km/h 77 % 0 mm
20:42 -14.8 °C -16.6 °C 34808.1 hPa Calm   2.6 km/h 79 % 0 mm
20:47 -14.8 °C -16.7 °C 34808.1 hPa Calm   2.6 km/h 79 % 0 mm
20:52 -14.9 °C -16.7 °C 34818.2 hPa Calm   2.6 km/h 80 % 0 mm
20:57 -14.9 °C -16.6 °C 34818.2 hPa Calm   5.1 km/h 81 % 0 mm
21:02 -15.1 °C -16.8 °C 34818.2 hPa Calm   5.1 km/h 80 % 0 mm
21:07 -15.2 °C -16.8 °C 34818.2 hPa Calm   5.1 km/h 81 % 0 mm
21:12 -15.2 °C -16.8 °C 34818.2 hPa Calm   2.6 km/h 82 % 0 mm
21:17 -15.2 °C -16.7 °C 34818.2 hPa Calm   2.6 km/h 82 % 0 mm
21:22 -15.2 °C -16.9 °C 34818.2 hPa Calm   2.6 km/h 81 % 0 mm
21:27 -15.2 °C -16.8 °C 34831.8 hPa Calm   2.6 km/h 82 % 0 mm
21:32 -15.2 °C -16.8 °C 34831.8 hPa Calm   2.6 km/h 82 % 0 mm
21:37 -15.3 °C -16.9 °C 34831.8 hPa Calm   5.1 km/h 82 % 0 mm
21:42 -15.3 °C -16.9 °C 34831.8 hPa NW 2.6 km/h 5.1 km/h 82 % 0 mm
21:47 -15.4 °C -16.9 °C 34831.8 hPa NW 2.6 km/h 5.1 km/h 82 % 0 mm
21:52 -15.4 °C -16.9 °C 34831.8 hPa Calm   5.1 km/h 82 % 0 mm
22:02 -15.6 °C -17.1 °C 34831.8 hPa Calm   7.7 km/h 83 % 0 mm
22:12 -15.8 °C -17.1 °C 34831.8 hPa Calm   5.1 km/h 84 % 0 mm
22:17 -15.8 °C -17.1 °C 34831.8 hPa NNE 2.6 km/h 7.7 km/h 84 % 0 mm
22:22 -15.8 °C -17.2 °C 34831.8 hPa North 2.6 km/h 10.3 km/h 84 % 0 mm
22:27 -15.9 °C -17.2 °C 34831.8 hPa NNE 2.6 km/h 10.3 km/h 84 % 0 mm
22:32 -15.9 °C -17.2 °C 34841.9 hPa Calm   10.3 km/h 85 % 0 mm
22:37 -15.9 °C -17.2 °C 34841.9 hPa Calm   10.3 km/h 85 % 0 mm
22:42 -15.8 °C -17.1 °C 34841.9 hPa Calm   12.9 km/h 85 % 0 mm
22:47 -15.8 °C -17.1 °C 34841.9 hPa Calm   12.9 km/h 85 % 0 mm
22:52 -15.8 °C -17.1 °C 34841.9 hPa NNE 5.1 km/h 7.7 km/h 84 % 0 mm
22:57 -15.8 °C -17.1 °C 34841.9 hPa Calm   7.7 km/h 84 % 0 mm
23:07 -15.9 °C -17.2 °C 34841.9 hPa NNE 2.6 km/h 5.1 km/h 84 % 0 mm
23:12 -15.9 °C -17.2 °C 34841.9 hPa NNE 2.6 km/h 7.7 km/h 85 % 0 mm
23:17 -15.9 °C -17.2 °C 34841.9 hPa Calm   7.7 km/h 85 % 0 mm
23:22 -15.8 °C -17.1 °C 34841.9 hPa Calm   7.7 km/h 85 % 0 mm
23:32 -15.8 °C -17.2 °C 34841.9 hPa NNE 7.7 km/h 10.3 km/h 84 % 0 mm
23:37 -15.7 °C -17.1 °C 34841.9 hPa NE 2.6 km/h 12.9 km/h 84 % 0 mm
23:42 -15.6 °C -17 °C 34852.1 hPa Calm   15.6 km/h 84 % 0 mm
23:47 -15.5 °C -16.9 °C 34852.1 hPa North 10.3 km/h 15.6 km/h 83 % 0 mm
23:52 -15.6 °C -17 °C 34841.9 hPa NNE 10.3 km/h 18.2 km/h 83 % 0 mm
23:57 -15.6 °C -17 °C 34852.1 hPa NNE 10.3 km/h 18.2 km/h 83 % 0 mm
Meteo18
Compliments of Weather Underground - 4 mb

Script developed by  Jim McMurry - jmcmurry@mwt.net Adapted for the template by  Wim van der Kuil - Leuven-Template.eu

You find our weather info also at:

European Weather Network

Weather Underground

Equipment we use:

Weather-station
Davis Vue

Weather-program
Meteobridge

Weather-server
Raspberry PI 2 B+

Provider
1 and 1

Davis Vue

Meteobridge

Raspberry PI 2 B+

1 and 1